FLyWide

FLyWide Virtual



 METAR AND TAF INFORMATION
METAR FOR LBBG
ADDS - METARS form results

(0755 UTC 08 December 2019)
Data provider http://aviationweather.gov/metar/data/
 
METAR text: LBBG 080730Z 23004KT 7000 NSC 06/04 Q1018 NOSIG
Conditions at: LBBG (BURGAS , BG) observed 0730 UTC 08 December 2019
Temperature: 6.0°C (43°F)
Dewpoint: 4.0°C (39°F) [RH = 87%]
Pressure (altimeter): 30.06 inches Hg (1018.0 mb)
Winds: from the SW (230 degrees) at 5 MPH (4 knots; 2.1 m/s)
Visibility: 4 miles ( 7 km)
Ceiling: at least 12,000 feet AGL
Clouds: sky clear below 12,000 feet AGL
Weather: no significant weather observed at this time

METAR text: LBBG 080700Z 25005KT 5000 NSC 05/03 Q1018 TEMPO 3000 BR
Conditions at: LBBG (BURGAS , BG) observed 0700 UTC 08 December 2019
Temperature: 5.0°C (41°F)
Dewpoint: 3.0°C (37°F) [RH = 87%]
Pressure (altimeter): 30.06 inches Hg (1018.0 mb)
Winds: from the WSW (250 degrees) at 6 MPH (5 knots; 2.6 m/s)
Visibility: 3 miles ( 5 km)
Ceiling: at least 12,000 feet AGL
Clouds: sky clear below 12,000 feet AGL
Weather: no significant weather observed at this time

Forecast for: LBBG (BURGAS , BG)
Text: TAF LBBG 080500Z 0806/0906 26008KT CAVOK
Forecast period: 0600 to 1200 UTC 08 December 2019
Forecast type: FROM: standard forecast or significant change
Winds: from the W (260 degrees) at 9 MPH (8 knots; 4.1 m/s)
Visibility: 6 or more miles 10+ km)
Ceiling: unknown
Clouds: missing
Weather: NSW  (no significant weather)
Text: BECMG 0812/0814 VRB04KT
Forecast period: 1200 UTC 08 December 2019 to 0600 UTC 09 December 2019
Forecast type: BECOMING: Conditions expected to become as follows by 1400 UTC 08 December 2019
Winds: variable direction winds at 5 MPH (4 knots; 2.1 m/s)
Visibility: 6 or more miles 10+ km)
Ceiling: unknown
Clouds: missing
Weather: NSW  (no significant weather)
Text: TEMPO 0902/0906 3000 BR BKN010
Forecast period: 0200 to 0600 UTC 09 December 2019
Forecast type: TEMPORARY: The following changes expected for less than half the time period
Visibility: 1.86 miles (2.99 km)
Ceiling: 1000 feet AGL
Clouds: broken clouds at 1000 feet AGL
Weather: BR  (mist)

 AIRPORT MAP

 RUNWAY INFORMATION
Runway 04 Runway length 10499 ft Runway width 148 ft
Runway elevation 89 ft Runway displaced threshold 0 ft Runway heading 44
Runway 22 Runway length 10499 ft Runway width 148 ft
Runway elevation 121 ft Runway displaced threshold 0 ft Runway heading 224

 AIRPORT FREQUENCIES
Type APP Name APP Frequency 125.1 MHZ
Type ATIS Name ATIS Frequency 120.95 MHZ
Type TWR Name TWR Frequency 118 MHZ

 AIRPORT NEAR NAVIGATION AIDS
Type VOR-DME Name Burgas Frequency 112000 KHZ
Type NDB Name Burgas Frequency 356 KHZ